createdAt,value
2018-07-13T00:00:05.541Z,18.10
2018-07-13T00:02:40.285Z,18.00
2018-07-13T00:05:15.102Z,18.10
2018-07-13T00:07:50.949Z,18.00
2018-07-13T00:12:59.987Z,17.90
2018-07-13T00:15:35.729Z,17.90
2018-07-13T00:18:10.480Z,17.90
2018-07-13T00:20:45.260Z,17.80
2018-07-13T00:23:20.051Z,17.80
2018-07-13T00:25:54.853Z,17.80
2018-07-13T00:28:29.608Z,17.70
2018-07-13T00:31:04.449Z,17.60
2018-07-13T00:33:39.185Z,17.60
2018-07-13T00:36:14.004Z,17.60
2018-07-13T00:38:48.755Z,17.60
2018-07-13T00:41:23.666Z,17.50
2018-07-13T00:43:58.425Z,17.50
2018-07-13T00:49:09.866Z,17.50
2018-07-13T00:51:44.680Z,17.40
2018-07-13T00:54:19.404Z,17.40
2018-07-13T00:56:54.157Z,17.40
2018-07-13T00:59:28.921Z,17.30
2018-07-13T01:04:38.084Z,17.30
2018-07-13T01:07:12.860Z,17.20
2018-07-13T01:09:47.550Z,17.20
2018-07-13T01:12:22.354Z,17.20
2018-07-13T01:14:57.152Z,17.20
2018-07-13T01:17:31.917Z,17.20
2018-07-13T01:22:40.948Z,17.10
2018-07-13T01:25:15.714Z,17.10
2018-07-13T01:27:50.500Z,17.00
2018-07-13T01:32:59.604Z,17.00
2018-07-13T01:35:34.525Z,17.00
2018-07-13T01:38:10.328Z,17.00
2018-07-13T01:40:45.066Z,17.00
2018-07-13T01:43:19.841Z,17.00
2018-07-13T01:45:54.600Z,16.90
2018-07-13T01:48:29.345Z,17.00
2018-07-13T01:51:04.106Z,16.90
2018-07-13T01:53:38.913Z,16.90
2018-07-13T01:56:13.663Z,16.90
2018-07-13T01:58:48.477Z,16.90
2018-07-13T02:01:23.222Z,16.90
2018-07-13T02:03:58.017Z,16.90
2018-07-13T02:06:33.788Z,16.90
2018-07-13T02:09:09.561Z,16.90
2018-07-13T02:11:44.336Z,16.90
2018-07-13T02:16:53.362Z,16.80
2018-07-13T02:19:28.155Z,16.90
2018-07-13T02:22:02.960Z,16.80
2018-07-13T02:24:37.764Z,16.80
2018-07-13T02:27:12.548Z,16.80
2018-07-13T02:29:47.341Z,16.70
2018-07-13T02:32:22.097Z,16.70
2018-07-13T02:34:56.947Z,16.70
2018-07-13T02:37:31.832Z,16.70
2018-07-13T02:40:07.645Z,16.70
2018-07-13T02:42:42.461Z,16.70
2018-07-13T02:45:17.231Z,16.70
2018-07-13T02:47:52.021Z,16.70
2018-07-13T02:53:02.065Z,16.60
2018-07-13T02:55:36.858Z,16.60
2018-07-13T02:58:11.565Z,16.60
2018-07-13T03:00:46.343Z,16.60
2018-07-13T03:03:39.586Z,16.60
2018-07-13T03:06:15.436Z,16.60
2018-07-13T03:08:51.463Z,16.50
2018-07-13T03:11:26.314Z,16.50
2018-07-13T03:14:01.049Z,16.50
2018-07-13T03:16:36.193Z,16.50
2018-07-13T03:19:10.925Z,16.50
2018-07-13T03:22:01.561Z,16.60
2018-07-13T03:24:36.387Z,16.60
2018-07-13T03:27:11.182Z,16.60
2018-07-13T03:29:45.973Z,16.60
2018-07-13T03:32:21.817Z,16.60
2018-07-13T03:34:56.579Z,16.60
2018-07-13T03:37:31.457Z,16.60
2018-07-13T03:40:06.247Z,16.70
2018-07-13T03:42:42.055Z,16.70
2018-07-13T03:45:17.838Z,16.70
2018-07-13T03:47:53.635Z,16.80
2018-07-13T03:50:28.410Z,16.80
2018-07-13T03:53:03.244Z,16.80
2018-07-13T03:55:37.994Z,16.90
2018-07-13T03:58:12.861Z,16.90
2018-07-13T04:00:47.608Z,16.90
2018-07-13T04:03:22.398Z,17.00
2018-07-13T04:05:58.349Z,17.10
2018-07-13T04:08:33.109Z,17.20
2018-07-13T04:11:07.895Z,17.20
2018-07-13T04:13:42.673Z,17.20
2018-07-13T04:16:17.432Z,17.20
2018-07-13T04:18:53.244Z,17.20
2018-07-13T04:21:28.080Z,17.20
2018-07-13T04:24:02.868Z,17.30
2018-07-13T04:26:37.634Z,17.30
2018-07-13T04:29:12.517Z,17.30
2018-07-13T04:34:21.525Z,17.20
2018-07-13T04:36:56.834Z,17.10
2018-07-13T04:39:31.601Z,17.10
2018-07-13T04:42:06.432Z,17.20
2018-07-13T04:44:41.213Z,17.20
2018-07-13T04:47:16.011Z,17.20
2018-07-13T04:49:53.044Z,17.20
2018-07-13T04:52:25.883Z,17.20
2018-07-13T04:55:00.719Z,17.20
2018-07-13T04:57:36.564Z,17.30
2018-07-13T05:00:11.435Z,17.30
2018-07-13T05:02:46.248Z,17.30
2018-07-13T05:05:21.201Z,17.30
2018-07-13T05:07:56.037Z,17.30
2018-07-13T05:10:30.883Z,17.20
2018-07-13T05:13:05.649Z,17.20
2018-07-13T05:15:40.461Z,17.20
2018-07-13T05:18:15.215Z,17.30
2018-07-13T05:20:50.110Z,17.30
2018-07-13T05:26:00.269Z,17.30
2018-07-13T05:28:35.227Z,17.20
2018-07-13T05:31:11.144Z,17.20
2018-07-13T05:33:46.036Z,17.10
2018-07-13T05:36:20.888Z,17.10
2018-07-13T05:38:55.699Z,17.00
2018-07-13T05:41:31.618Z,17.10
2018-07-13T05:44:06.469Z,17.10
2018-07-13T05:46:41.726Z,17.10
2018-07-13T05:49:16.578Z,17.10
2018-07-13T05:51:51.491Z,17.00
2018-07-13T05:54:26.320Z,16.90
2018-07-13T05:57:02.162Z,16.90
2018-07-13T05:59:37.004Z,16.90
2018-07-13T06:02:11.833Z,17.00
2018-07-13T06:04:46.741Z,17.00
2018-07-13T06:07:21.585Z,17.00
2018-07-13T06:09:56.412Z,17.00
2018-07-13T06:12:31.287Z,17.10
2018-07-13T06:17:41.816Z,17.10
2018-07-13T06:20:16.585Z,17.10
2018-07-13T06:25:25.636Z,17.20
2018-07-13T06:28:00.458Z,17.30
2018-07-13T06:30:36.357Z,17.30
2018-07-13T06:33:11.512Z,17.30
2018-07-13T06:35:46.261Z,17.40
2018-07-13T06:38:21.341Z,17.30
2018-07-13T06:40:56.172Z,17.30
2018-07-13T06:43:31.017Z,17.40
2018-07-13T06:46:06.078Z,17.50
2018-07-13T06:48:41.927Z,17.60
2018-07-13T06:51:16.750Z,17.70
2018-07-13T06:53:51.540Z,18.00
2018-07-13T06:56:27.395Z,18.30
2018-07-13T06:59:10.948Z,18.40
2018-07-13T07:01:46.256Z,18.70
2018-07-13T07:04:27.268Z,19.10
2018-07-13T07:07:04.033Z,19.20
2018-07-13T07:09:39.817Z,19.90
2018-07-13T07:14:57.011Z,20.90
2018-07-13T07:17:31.756Z,20.90
2018-07-13T07:20:06.557Z,21.20
2018-07-13T07:22:41.295Z,21.70
2018-07-13T07:25:17.215Z,22.80
2018-07-13T07:27:51.976Z,23.50
2018-07-13T07:30:26.836Z,23.50
2018-07-13T07:35:36.909Z,24.30
2018-07-13T07:38:12.752Z,25.10
2018-07-13T07:40:48.166Z,25.10
2018-07-13T07:43:23.002Z,25.90
2018-07-13T07:45:58.766Z,26.30
2018-07-13T07:48:33.160Z,26.40
2018-07-13T07:51:08.976Z,26.30
2018-07-13T07:53:44.468Z,26.10
2018-07-13T07:56:18.982Z,26.40
2018-07-13T07:58:53.419Z,27.00
2018-07-13T08:01:27.902Z,27.10
2018-07-13T08:04:02.380Z,25.90
2018-07-13T08:09:12.601Z,24.00
2018-07-13T08:11:47.391Z,23.70
2018-07-13T08:14:23.169Z,23.90
2018-07-13T08:16:59.240Z,24.00
2018-07-13T08:19:34.082Z,23.90
2018-07-13T08:22:17.213Z,24.00
2018-07-13T08:24:55.713Z,23.80
2018-07-13T08:27:36.169Z,24.40
2018-07-13T08:30:15.207Z,25.10
2018-07-13T08:32:49.949Z,25.30
2018-07-13T08:35:24.732Z,25.80
2018-07-13T08:37:59.489Z,26.10
2018-07-13T08:40:34.327Z,26.10
2018-07-13T08:43:09.051Z,26.40
2018-07-13T08:45:43.634Z,27.10
2018-07-13T08:48:18.525Z,27.40
2018-07-13T08:50:53.742Z,27.00
2018-07-13T08:53:28.552Z,26.70
2018-07-13T08:56:03.179Z,27.10
2018-07-13T08:58:37.838Z,27.50
2018-07-13T09:01:12.327Z,27.80
2018-07-13T09:03:47.126Z,27.50
2018-07-13T09:06:21.686Z,27.90
2018-07-13T09:08:56.319Z,28.20
2018-07-13T09:14:04.780Z,28.40
2018-07-13T09:16:39.337Z,28.40
2018-07-13T09:19:13.824Z,28.90
2018-07-13T09:21:49.275Z,29.10
2018-07-13T09:24:23.730Z,29.60
2018-07-13T09:26:59.212Z,29.80
2018-07-13T09:29:33.647Z,29.10
2018-07-13T09:32:09.253Z,28.90
2018-07-13T09:34:44.720Z,28.60
2018-07-13T09:37:20.653Z,27.90
2018-07-13T09:45:03.393Z,26.20
2018-07-13T09:47:37.937Z,25.70
2018-07-13T09:50:12.713Z,25.60
2018-07-13T09:52:48.482Z,25.20
2018-07-13T09:55:23.274Z,24.70
2018-07-13T09:57:58.066Z,24.50
2018-07-13T10:03:12.681Z,24.20
2018-07-13T10:05:47.450Z,24.30
2018-07-13T10:08:22.598Z,24.20
2018-07-13T10:10:57.651Z,24.20
2018-07-13T10:13:33.599Z,24.30
2018-07-13T10:16:08.488Z,24.40
2018-07-13T10:18:43.314Z,24.30
2018-07-13T10:21:18.094Z,24.30
2018-07-13T10:23:53.223Z,24.00
2018-07-13T10:29:09.458Z,24.40
2018-07-13T10:31:44.344Z,24.80
2018-07-13T10:34:20.366Z,25.00
2018-07-13T10:36:57.813Z,24.90
2018-07-13T10:39:32.946Z,24.80
2018-07-13T10:42:08.038Z,24.70
2018-07-13T10:44:42.808Z,24.60
2018-07-13T10:47:17.584Z,24.30
2018-07-13T10:49:52.309Z,23.90
2018-07-13T10:52:27.093Z,23.80
2018-07-13T10:55:01.860Z,23.70
2018-07-13T10:57:36.628Z,23.70
2018-07-13T11:02:45.782Z,23.40
2018-07-13T11:05:20.593Z,23.50
2018-07-13T11:07:55.469Z,23.60
2018-07-13T11:10:30.222Z,23.70
2018-07-13T11:13:05.033Z,23.70
2018-07-13T11:15:39.804Z,23.80
2018-07-13T11:18:14.569Z,24.00
2018-07-13T11:20:49.328Z,24.00
2018-07-13T11:23:24.061Z,24.00
2018-07-13T11:25:58.801Z,23.90
2018-07-13T11:28:33.576Z,23.80
2018-07-13T11:31:08.568Z,23.60
2018-07-13T11:36:17.602Z,23.20
2018-07-13T11:38:53.392Z,23.10
2018-07-13T11:41:28.119Z,23.00
2018-07-13T11:44:02.900Z,22.90
2018-07-13T11:46:37.635Z,22.90
2018-07-13T11:49:12.384Z,22.90
2018-07-13T11:51:48.124Z,22.80
2018-07-13T11:56:57.135Z,22.60
2018-07-13T11:59:31.885Z,22.60
2018-07-13T12:04:40.889Z,22.40
2018-07-13T12:07:15.641Z,22.30
2018-07-13T12:09:51.411Z,22.40
2018-07-13T12:12:26.241Z,22.40
2018-07-13T12:17:35.265Z,22.30
2018-07-13T12:20:10.050Z,22.30
2018-07-13T12:22:44.804Z,22.60
2018-07-13T12:25:19.544Z,23.00
2018-07-13T12:27:54.315Z,23.30
2018-07-13T12:30:29.083Z,23.50
2018-07-13T12:33:03.788Z,23.90
2018-07-13T12:35:39.545Z,24.20
2018-07-13T12:38:14.293Z,24.40
2018-07-13T12:40:49.046Z,24.60
2018-07-13T12:43:23.785Z,24.80
2018-07-13T12:48:33.050Z,24.90
2018-07-13T12:51:07.968Z,25.10
2018-07-13T12:53:44.172Z,25.00
2018-07-13T12:56:18.933Z,25.00
2018-07-13T13:01:27.706Z,25.10
2018-07-13T13:04:02.509Z,25.10
2018-07-13T13:06:37.235Z,25.10
2018-07-13T13:09:11.682Z,25.00
2018-07-13T13:11:46.422Z,25.20
2018-07-13T13:14:22.173Z,25.20
2018-07-13T13:16:57.893Z,25.40
2018-07-13T13:19:33.633Z,25.40
2018-07-13T13:24:43.742Z,25.20
2018-07-13T13:27:18.641Z,25.10
2018-07-13T13:29:53.402Z,25.10
2018-07-13T13:32:28.132Z,24.90
2018-07-13T13:35:02.891Z,24.90
2018-07-13T13:40:11.941Z,25.00
2018-07-13T13:45:20.995Z,24.90
2018-07-13T13:47:55.737Z,24.80
2018-07-13T13:50:30.491Z,24.80
2018-07-13T13:53:05.484Z,24.70
2018-07-13T13:55:40.233Z,24.50
2018-07-13T13:58:14.957Z,24.60
2018-07-13T14:00:49.789Z,24.60
2018-07-13T14:03:24.541Z,24.40
2018-07-13T14:06:00.346Z,24.50
2018-07-13T14:08:35.140Z,24.60
2018-07-13T14:11:09.916Z,24.60
2018-07-13T14:13:44.701Z,24.70
2018-07-13T14:18:53.680Z,24.90
2018-07-13T14:21:28.859Z,25.00
2018-07-13T14:24:04.777Z,25.20
2018-07-13T14:26:39.541Z,25.20
2018-07-13T14:29:14.264Z,25.30
2018-07-13T14:31:49.040Z,25.20
2018-07-13T14:34:23.823Z,25.10
2018-07-13T14:36:58.795Z,25.00
2018-07-13T14:39:33.677Z,25.00
2018-07-13T14:42:08.482Z,25.00
2018-07-13T14:44:44.257Z,25.00
2018-07-13T14:47:18.981Z,24.80
2018-07-13T14:49:53.747Z,24.80
2018-07-13T14:52:28.481Z,24.90
2018-07-13T14:55:03.245Z,24.90
2018-07-13T14:57:37.968Z,24.90
2018-07-13T15:00:12.813Z,25.00
2018-07-13T15:02:47.564Z,25.00
2018-07-13T15:05:22.397Z,25.10
2018-07-13T15:10:31.523Z,25.10
2018-07-13T15:13:07.420Z,25.00
2018-07-13T15:15:43.197Z,25.00
2018-07-13T15:18:18.298Z,25.00
2018-07-13T15:20:53.112Z,25.10
2018-07-13T15:23:27.852Z,25.10
2018-07-13T15:26:02.644Z,25.10
2018-07-13T15:28:37.385Z,25.20
2018-07-13T15:31:12.148Z,25.10
2018-07-13T15:33:47.892Z,25.00
2018-07-13T15:36:22.653Z,24.80
2018-07-13T15:38:57.380Z,24.80
2018-07-13T15:41:32.201Z,24.70
2018-07-13T15:44:07.000Z,24.70
2018-07-13T15:46:41.770Z,24.60
2018-07-13T15:49:16.523Z,24.50
2018-07-13T15:54:25.471Z,24.40
2018-07-13T15:57:00.233Z,24.30
2018-07-13T15:59:34.989Z,24.30
2018-07-13T16:02:10.026Z,24.30
2018-07-13T16:04:44.763Z,24.20
2018-07-13T16:07:19.507Z,24.20
2018-07-13T16:12:28.597Z,24.10
2018-07-13T16:15:04.344Z,24.10
2018-07-13T16:17:39.092Z,24.10
2018-07-13T16:20:13.853Z,24.10
2018-07-13T16:22:49.681Z,24.10
2018-07-13T16:25:24.276Z,24.00
2018-07-13T16:27:59.048Z,24.00
2018-07-13T16:30:33.812Z,24.00
2018-07-13T16:33:08.591Z,24.00
2018-07-13T16:35:43.353Z,24.00
2018-07-13T16:38:18.122Z,24.00
2018-07-13T16:40:53.169Z,24.00
2018-07-13T16:43:28.311Z,24.10
2018-07-13T16:46:03.102Z,24.00
2018-07-13T16:48:38.865Z,24.00
2018-07-13T16:51:13.812Z,23.90
2018-07-13T16:53:48.551Z,23.80
2018-07-13T16:56:23.392Z,23.80
2018-07-13T16:58:58.260Z,23.80
2018-07-13T17:01:33.119Z,23.80
2018-07-13T17:04:08.015Z,23.70
2018-07-13T17:06:42.770Z,23.60
2018-07-13T17:09:17.815Z,23.60
2018-07-13T17:11:52.657Z,23.50
2018-07-13T17:14:27.344Z,23.50
2018-07-13T17:17:03.112Z,23.50
2018-07-13T17:19:37.874Z,23.50
2018-07-13T17:22:12.804Z,23.50
2018-07-13T17:24:47.553Z,23.40
2018-07-13T17:27:22.300Z,23.30
2018-07-13T17:29:57.036Z,23.30
2018-07-13T17:32:31.888Z,23.30
2018-07-13T17:35:06.727Z,23.10
2018-07-13T17:37:41.971Z,23.10
2018-07-13T17:40:16.728Z,23.00
2018-07-13T17:42:51.579Z,23.00
2018-07-13T17:45:27.525Z,22.90
2018-07-13T17:48:02.284Z,22.80
2018-07-13T17:50:37.034Z,22.70
2018-07-13T17:53:11.776Z,22.70
2018-07-13T17:55:46.535Z,22.60
2018-07-13T17:58:21.283Z,22.60
2018-07-13T18:00:56.222Z,22.50
2018-07-13T18:06:05.316Z,22.30
2018-07-13T18:08:40.106Z,22.20
2018-07-13T18:11:14.997Z,22.20
2018-07-13T18:13:49.999Z,22.10
2018-07-13T18:16:24.743Z,22.00
2018-07-13T18:18:59.520Z,21.90
2018-07-13T18:21:34.276Z,21.90
2018-07-13T18:24:09.556Z,21.80
2018-07-13T18:26:44.310Z,21.70
2018-07-13T18:29:20.148Z,21.70
2018-07-13T18:31:55.869Z,21.50
2018-07-13T18:34:30.637Z,21.50
2018-07-13T18:37:06.514Z,21.30
2018-07-13T18:42:15.500Z,21.20
2018-07-13T18:44:51.311Z,21.10
2018-07-13T18:47:26.098Z,21.00
2018-07-13T18:50:00.880Z,20.90
2018-07-13T18:52:35.662Z,20.80
2018-07-13T18:55:10.424Z,20.70
2018-07-13T18:57:45.224Z,20.60
2018-07-13T19:00:19.989Z,20.60
2018-07-13T19:02:54.812Z,20.50
2018-07-13T19:05:29.506Z,20.40
2018-07-13T19:08:04.327Z,20.40
2018-07-13T19:10:39.432Z,20.20
2018-07-13T19:13:14.213Z,20.20
2018-07-13T19:18:23.196Z,20.00
2018-07-13T19:20:57.914Z,19.80
2018-07-13T19:23:32.670Z,19.80
2018-07-13T19:26:07.436Z,19.70
2018-07-13T19:28:43.212Z,19.70
2018-07-13T19:31:17.936Z,19.60
2018-07-13T19:33:52.685Z,19.50
2018-07-13T19:36:27.470Z,19.40
2018-07-13T19:39:02.448Z,19.30
2018-07-13T19:41:37.210Z,19.30
2018-07-13T19:46:47.269Z,19.10
2018-07-13T19:49:22.041Z,19.00
2018-07-13T19:51:56.892Z,18.90
2018-07-13T19:54:32.727Z,18.90
2018-07-13T19:57:07.668Z,18.90
2018-07-13T19:59:43.612Z,18.80
2018-07-13T20:02:18.344Z,18.80
2018-07-13T20:04:53.123Z,18.70
2018-07-13T20:12:36.333Z,18.60
2018-07-13T20:15:11.088Z,18.50
2018-07-13T20:17:46.865Z,18.50
2018-07-13T20:20:21.645Z,18.50
2018-07-13T20:22:56.397Z,18.50
2018-07-13T20:25:31.095Z,18.40
2018-07-13T20:28:05.860Z,18.40
2018-07-13T20:33:14.944Z,18.30
2018-07-13T20:35:49.893Z,18.20
2018-07-13T20:38:24.611Z,18.20
2018-07-13T20:40:59.388Z,18.10
2018-07-13T20:43:34.144Z,18.10
2018-07-13T20:46:08.865Z,18.10
2018-07-13T20:48:43.644Z,18.00
2018-07-13T20:51:18.373Z,18.00
2018-07-13T20:53:53.114Z,17.90
2018-07-13T20:56:27.822Z,17.90
2018-07-13T20:59:02.730Z,17.80
2018-07-13T21:01:37.467Z,17.80
2018-07-13T21:04:12.238Z,17.70
2018-07-13T21:11:57.472Z,17.70
2018-07-13T21:14:33.401Z,17.70
2018-07-13T21:19:43.434Z,17.60
2018-07-13T21:22:18.325Z,17.60
2018-07-13T21:24:53.202Z,17.50
2018-07-13T21:27:28.073Z,17.50
2018-07-13T21:30:02.862Z,17.50
2018-07-13T21:35:12.247Z,17.40
2018-07-13T21:37:47.040Z,17.40
2018-07-13T21:40:21.836Z,17.40
2018-07-13T21:42:56.608Z,17.30
2018-07-13T21:45:31.421Z,17.30
2018-07-13T21:50:40.709Z,17.20
2018-07-13T21:53:15.460Z,17.20
2018-07-13T21:55:50.245Z,17.20
2018-07-13T21:58:26.018Z,17.10
2018-07-13T22:01:00.840Z,17.10
2018-07-13T22:03:35.556Z,17.10
2018-07-13T22:06:10.335Z,17.00
2018-07-13T22:08:45.033Z,17.00
2018-07-13T22:11:20.926Z,17.00
2018-07-13T22:13:55.682Z,17.00
2018-07-13T22:16:30.467Z,16.90
2018-07-13T22:19:05.213Z,16.90
2018-07-13T22:24:14.228Z,16.80
2018-07-13T22:26:49.117Z,16.70
2018-07-13T22:29:24.823Z,16.70
2018-07-13T22:31:59.701Z,16.60
2018-07-13T22:34:34.428Z,16.60
2018-07-13T22:37:09.202Z,16.50
2018-07-13T22:39:43.920Z,16.50
2018-07-13T22:42:19.703Z,16.50
2018-07-13T22:44:54.564Z,16.50
2018-07-13T22:47:29.333Z,16.50
2018-07-13T22:50:05.163Z,16.50
2018-07-13T22:52:40.980Z,16.40
2018-07-13T22:55:15.903Z,16.40
2018-07-13T22:57:51.848Z,16.40
2018-07-13T23:05:36.178Z,16.30
2018-07-13T23:08:10.928Z,16.30
2018-07-13T23:10:45.695Z,16.30
2018-07-13T23:13:20.509Z,16.30
2018-07-13T23:18:30.571Z,16.30
2018-07-13T23:21:05.276Z,16.20
2018-07-13T23:23:40.030Z,16.20
2018-07-13T23:28:50.721Z,16.20
2018-07-13T23:31:25.403Z,16.20
2018-07-13T23:34:00.174Z,16.20
2018-07-13T23:36:35.930Z,16.20
2018-07-13T23:39:10.684Z,16.20
2018-07-13T23:41:45.437Z,16.20
2018-07-13T23:44:20.234Z,16.10
2018-07-13T23:46:54.980Z,16.10
2018-07-13T23:49:29.760Z,16.10
2018-07-13T23:52:04.564Z,16.10
2018-07-13T23:57:13.577Z,16.00
2018-07-13T23:59:49.408Z,16.00
